Time;durP1;ratioP1;P1;durP2;ratioP2;P2;SDS_P1;SDS_P2;PMS_P1;PMS_P2;Temp;Humidity;BMP_temperature;BMP_pressure;BME280_temperature;BME280_humidity;BME280_pressure;Samples;Min_cycle;Max_cycle;Signal;HPM_P1;HPM_P2
2023/05/30 00:01:37;;;;;;;;;;;18.00;99.90;;;;;;4847496;29;19928;-80
2023/05/30 00:04:04;;;;;;;;;;;17.90;99.90;;;;;;4821479;29;19992;-80
2023/05/30 00:06:32;;;;;;;;;;;17.90;99.90;;;;;;4813990;29;20031;-80
2023/05/30 00:09:00;;;;;;;;;;;18.60;99.90;;;;;;4836849;29;19936;-80
2023/05/30 00:11:28;;;;;;;;;;;17.80;99.90;;;;;;4834315;29;19936;-80
2023/05/30 00:13:55;;;;;;;;;;;17.80;99.90;;;;;;4838477;29;20405;-80
2023/05/30 00:16:23;;;;;;;;;;;17.80;99.90;;;;;;4835895;29;20472;-79
2023/05/30 00:18:52;;;;;;;;;;;17.80;99.90;;;;;;4843519;29;19943;-80
2023/05/30 00:21:20;;;;;;;;;;;17.90;99.90;;;;;;4840255;29;19936;-80
2023/05/30 00:23:47;;;;;;;;;;;17.70;99.90;;;;;;4838873;29;20704;-80
2023/05/30 00:26:15;;;;;;;;;;;17.80;99.90;;;;;;4836483;29;19932;-79
2023/05/30 00:28:50;;;;;;;;;;;17.80;99.90;;;;;;4816552;29;19935;-79
2023/05/30 00:31:18;;;;;;;;;;;17.80;99.90;;;;;;4842437;29;19967;-80
2023/05/30 00:33:46;;;;;;;;;;;16.90;99.90;;;;;;4846321;29;19971;-80
2023/05/30 00:36:16;;;;;;;;;;;17.00;99.90;;;;;;4820293;29;19929;-79
2023/05/30 00:38:43;;;;;;;;;;;17.60;99.90;;;;;;4835735;29;20856;-79
2023/05/30 00:41:10;;;;;;;;;;;17.60;99.90;;;;;;4823448;29;19942;-79
2023/05/30 00:43:37;;;;;;;;;;;17.70;99.90;;;;;;4821974;29;19932;-79
2023/05/30 00:46:06;;;;;;;;;;;17.60;99.90;;;;;;4842443;29;19928;-78
2023/05/30 00:48:34;;;;;;;;;;;17.40;99.90;;;;;;4841734;29;19980;-79
2023/05/30 00:51:04;;;;;;;;;;;18.10;99.90;;;;;;4820883;29;19928;-80
2023/05/30 00:53:41;;;;;;;;;;;17.30;99.90;;;;;;4819653;29;19996;-80
2023/05/30 00:56:10;;;;;;;;;;;17.30;99.90;;;;;;4820434;29;19977;-79
2023/05/30 00:58:39;;;;;;;;;;;17.20;99.90;;;;;;4829543;29;19958;-80
2023/05/30 01:01:06;;;;;;;;;;;17.20;99.90;;;;;;4828211;29;20716;-80
2023/05/30 01:03:34;;;;;;;;;;;17.30;99.90;;;;;;4835661;29;19977;-81
2023/05/30 01:06:03;;;;;;;;;;;18.50;99.90;;;;;;4835669;29;20349;-80
2023/05/30 01:08:30;;;;;;;;;;;17.10;99.90;;;;;;4830571;29;20306;-79
2023/05/30 01:11:07;;;;;;;;;;;17.00;99.90;;;;;;4836459;29;19937;-79
2023/05/30 01:13:52;;;;;;;;;;;17.00;99.90;;;;;;4841690;29;20455;-80
2023/05/30 01:16:23;;;;;;;;;;;17.10;99.90;;;;;;4842930;29;19932;-80
2023/05/30 01:18:56;;;;;;;;;;;17.30;99.90;;;;;;4833496;29;19964;-79
2023/05/30 01:21:24;;;;;;;;;;;17.20;99.90;;;;;;4827057;29;19967;-80
2023/05/30 01:23:52;;;;;;;;;;;17.30;99.90;;;;;;4828112;29;19959;-80
2023/05/30 01:26:26;;;;;;;;;;;17.30;99.90;;;;;;4817602;29;20682;-80
2023/05/30 01:28:55;;;;;;;;;;;17.50;99.90;;;;;;4816177;29;19936;-80
2023/05/30 01:31:23;;;;;;;;;;;17.40;99.90;;;;;;4828700;29;19928;-80
2023/05/30 01:33:51;;;;;;;;;;;17.30;99.90;;;;;;4834462;29;19932;-80
2023/05/30 01:36:20;;;;;;;;;;;17.30;99.90;;;;;;4817254;29;19932;-80
2023/05/30 01:38:48;;;;;;;;;;;17.40;99.90;;;;;;4819748;29;20364;-80
2023/05/30 01:41:45;;;;;;;;;;;17.30;99.90;;;;;;4821224;29;20031;-79
2023/05/30 01:44:28;;;;;;;;;;;17.30;99.90;;;;;;4819323;29;20365;-79
2023/05/30 01:47:08;;;;;;;;;;;17.30;99.90;;;;;;4848799;29;20173;-80
2023/05/30 01:49:57;;;;;;;;;;;17.30;99.90;;;;;;4836735;29;19939;-80
2023/05/30 01:52:27;;;;;;;;;;;16.90;99.90;;;;;;4828241;29;20004;-80
2023/05/30 01:54:58;;;;;;;;;;;17.30;99.90;;;;;;4850642;29;19975;-79
2023/05/30 01:57:27;;;;;;;;;;;17.30;99.90;;;;;;4833886;29;20027;-80
2023/05/30 01:59:56;;;;;;;;;;;17.40;99.90;;;;;;4811328;29;19935;-79
2023/05/30 02:02:24;;;;;;;;;;;17.30;99.90;;;;;;4820141;29;20037;-80
2023/05/30 02:04:51;;;;;;;;;;;17.30;99.90;;;;;;4835148;29;19936;-80
2023/05/30 02:07:19;;;;;;;;;;;17.30;99.90;;;;;;4849659;29;19928;-80
2023/05/30 02:09:46;;;;;;;;;;;17.50;99.90;;;;;;4829306;29;19932;-80
2023/05/30 02:12:13;;;;;;;;;;;17.40;99.90;;;;;;4819286;29;19953;-80
2023/05/30 02:14:40;;;;;;;;;;;17.40;99.90;;;;;;4821242;29;19932;-80
2023/05/30 02:17:08;;;;;;;;;;;17.40;99.90;;;;;;4819223;29;19935;-80
2023/05/30 02:19:36;;;;;;;;;;;16.90;99.90;;;;;;4840310;29;19929;-80
2023/05/30 02:22:04;;;;;;;;;;;17.20;99.90;;;;;;4828345;29;19928;-80
2023/05/30 02:24:31;;;;;;;;;;;17.10;99.90;;;;;;4845805;29;19937;-80
2023/05/30 02:26:59;;;;;;;;;;;17.30;99.90;;;;;;4841309;29;19964;-80
2023/05/30 02:29:26;;;;;;;;;;;16.10;99.90;;;;;;4821765;29;19951;-79
2023/05/30 02:31:54;;;;;;;;;;;17.30;99.90;;;;;;4839687;29;20007;-80
2023/05/30 02:34:21;;;;;;;;;;;17.20;99.90;;;;;;4824720;29;19937;-80
2023/05/30 02:36:48;;;;;;;;;;;17.20;99.90;;;;;;4839112;29;20697;-80
2023/05/30 02:39:17;;;;;;;;;;;17.20;99.90;;;;;;4835038;29;19984;-80
2023/05/30 02:41:44;;;;;;;;;;;17.20;99.90;;;;;;4823179;29;19996;-80
2023/05/30 02:44:12;;;;;;;;;;;17.20;99.90;;;;;;4829045;29;19937;-80
2023/05/30 02:46:40;;;;;;;;;;;17.10;99.90;;;;;;4837560;29;19932;-80
2023/05/30 02:49:08;;;;;;;;;;;17.10;99.90;;;;;;4831976;29;20309;-80
2023/05/30 02:51:37;;;;;;;;;;;17.10;99.90;;;;;;4830074;29;20019;-80
2023/05/30 02:54:08;;;;;;;;;;;17.00;99.90;;;;;;4827601;29;19980;-80
2023/05/30 02:56:53;;;;;;;;;;;17.40;99.90;;;;;;4860901;29;20090;-80
2023/05/30 02:59:41;;;;;;;;;;;17.10;99.90;;;;;;4820906;29;19935;-80
2023/05/30 03:02:11;;;;;;;;;;;17.00;99.90;;;;;;4846466;29;19996;-79
2023/05/30 03:04:39;;;;;;;;;;;16.90;99.90;;;;;;4837011;29;19953;-79
2023/05/30 03:07:08;;;;;;;;;;;15.80;99.90;;;;;;4838841;29;19935;-79
2023/05/30 03:09:37;;;;;;;;;;;16.90;99.90;;;;;;4823816;29;19939;-79
2023/05/30 03:12:05;;;;;;;;;;;16.90;99.90;;;;;;4821116;29;20349;-79
2023/05/30 03:14:32;;;;;;;;;;;16.90;99.90;;;;;;4827409;29;19933;-79
2023/05/30 03:17:00;;;;;;;;;;;16.90;99.90;;;;;;4828776;29;19944;-80
2023/05/30 03:19:27;;;;;;;;;;;17.00;99.90;;;;;;4828725;29;20426;-80
2023/05/30 03:21:55;;;;;;;;;;;17.00;99.90;;;;;;4838278;29;22618;-79
2023/05/30 03:24:23;;;;;;;;;;;17.00;99.90;;;;;;4834419;29;20386;-79
2023/05/30 03:26:50;;;;;;;;;;;16.90;99.90;;;;;;4832244;29;20701;-79
2023/05/30 03:29:19;;;;;;;;;;;17.00;99.90;;;;;;4835079;29;19962;-79
2023/05/30 03:31:47;;;;;;;;;;;17.00;99.90;;;;;;4838132;29;20608;-79
2023/05/30 03:34:14;;;;;;;;;;;17.00;99.90;;;;;;4831699;29;20000;-79
2023/05/30 03:36:43;;;;;;;;;;;17.00;99.90;;;;;;4818458;29;19929;-79
2023/05/30 03:39:11;;;;;;;;;;;17.00;99.90;;;;;;4812168;29;19928;-80
2023/05/30 03:41:39;;;;;;;;;;;17.10;99.90;;;;;;4830640;29;19932;-80
2023/05/30 03:44:06;;;;;;;;;;;17.00;99.90;;;;;;4833306;29;19944;-80
2023/05/30 03:46:37;;;;;;;;;;;17.00;99.90;;;;;;4831349;29;19949;-80
2023/05/30 03:49:04;;;;;;;;;;;17.00;99.90;;;;;;4824229;29;19935;-80
2023/05/30 03:51:35;;;;;;;;;;;16.00;99.90;;;;;;4834225;29;20069;-79
2023/05/30 03:54:03;;;;;;;;;;;17.10;99.90;;;;;;4836861;29;20032;-80
2023/05/30 03:56:30;;;;;;;;;;;17.20;99.90;;;;;;4828254;29;19943;-79
2023/05/30 03:58:58;;;;;;;;;;;17.20;99.90;;;;;;4829277;29;19928;-79
2023/05/30 04:01:27;;;;;;;;;;;17.20;99.90;;;;;;4838249;29;19993;-79
2023/05/30 04:03:55;;;;;;;;;;;17.30;99.90;;;;;;4852646;29;20393;-80
2023/05/30 04:06:25;;;;;;;;;;;17.30;99.90;;;;;;4829403;29;19937;-79
2023/05/30 04:08:56;;;;;;;;;;;17.30;99.90;;;;;;4837903;29;19936;-80
2023/05/30 04:11:24;;;;;;;;;;;17.30;99.90;;;;;;4819979;29;19952;-79
2023/05/30 04:13:52;;;;;;;;;;;17.30;99.90;;;;;;4821761;29;20007;-79
2023/05/30 04:16:19;;;;;;;;;;;17.10;99.90;;;;;;4831142;29;19940;-80
2023/05/30 04:18:47;;;;;;;;;;;17.30;99.90;;;;;;4843557;29;22767;-79
2023/05/30 04:21:15;;;;;;;;;;;17.60;99.90;;;;;;4827945;29;19932;-79
2023/05/30 04:23:43;;;;;;;;;;;16.50;99.90;;;;;;4828089;29;19928;-79
2023/05/30 04:26:11;;;;;;;;;;;17.60;99.90;;;;;;4829457;29;19929;-79
2023/05/30 04:28:38;;;;;;;;;;;17.80;99.90;;;;;;4831160;29;19938;-79
2023/05/30 04:31:06;;;;;;;;;;;16.90;99.90;;;;;;4814770;29;20285;-79
2023/05/30 04:33:50;;;;;;;;;;;17.70;99.90;;;;;;4823637;29;19929;-80
2023/05/30 04:36:20;;;;;;;;;;;18.10;99.90;;;;;;4845901;29;20023;-78
2023/05/30 04:38:49;;;;;;;;;;;17.80;99.90;;;;;;4835656;29;20380;-79
2023/05/30 04:41:20;;;;;;;;;;;17.50;99.90;;;;;;4831812;29;19928;-79
2023/05/30 04:43:52;;;;;;;;;;;17.50;99.90;;;;;;4843394;29;20074;-80
2023/05/30 04:46:23;;;;;;;;;;;18.00;99.90;;;;;;4833189;29;19937;-80
2023/05/30 04:48:55;;;;;;;;;;;18.10;99.90;;;;;;4844845;29;19936;-80
2023/05/30 04:51:23;;;;;;;;;;;18.10;99.90;;;;;;4844820;29;19976;-80
2023/05/30 04:53:50;;;;;;;;;;;18.00;99.90;;;;;;4843703;29;22703;-80
2023/05/30 04:56:19;;;;;;;;;;;18.00;99.90;;;;;;4829013;29;22698;-80
2023/05/30 04:58:48;;;;;;;;;;;18.00;99.90;;;;;;4833787;29;19936;-80
2023/05/30 05:01:18;;;;;;;;;;;18.10;99.90;;;;;;4833981;29;20119;-80
2023/05/30 05:03:45;;;;;;;;;;;18.20;99.90;;;;;;4827875;29;20460;-80
2023/05/30 05:06:13;;;;;;;;;;;18.50;99.90;;;;;;5037454;24;19933;-78
2023/05/30 05:08:41;;;;;;;;;;;18.40;99.20;;;;;;4871053;29;19955;-78
2023/05/30 05:11:08;;;;;;;;;;;18.10;99.90;;;;;;4853578;29;19928;-77
2023/05/30 05:13:35;;;;;;;;;;;18.20;99.90;;;;;;4864001;29;19928;-78
2023/05/30 05:16:04;;;;;;;;;;;18.20;99.90;;;;;;4868352;29;19936;-78
2023/05/30 05:18:31;;;;;;;;;;;18.20;99.90;;;;;;4870923;29;19939;-78
2023/05/30 05:20:58;;;;;;;;;;;18.30;99.90;;;;;;4870238;29;19938;-78
2023/05/30 05:23:28;;;;;;;;;;;18.30;99.90;;;;;;4869517;29;20269;-77
2023/05/30 05:25:56;;;;;;;;;;;18.40;99.90;;;;;;4880612;29;19991;-78
2023/05/30 05:28:23;;;;;;;;;;;18.30;99.90;;;;;;4847278;29;19928;-77
2023/05/30 05:30:50;;;;;;;;;;;18.40;99.90;;;;;;4871679;29;19928;-78
2023/05/30 05:33:18;;;;;;;;;;;18.50;99.90;;;;;;4848233;29;19943;-78
2023/05/30 05:35:49;;;;;;;;;;;18.70;99.90;;;;;;4864973;29;19959;-78
2023/05/30 05:38:19;;;;;;;;;;;18.60;99.90;;;;;;4866886;29;20062;-78
2023/05/30 05:40:46;;;;;;;;;;;18.80;99.90;;;;;;4852176;29;19942;-76
2023/05/30 05:43:14;;;;;;;;;;;18.80;99.90;;;;;;4883165;29;20360;-78
2023/05/30 05:45:41;;;;;;;;;;;18.60;99.90;;;;;;4875011;29;20007;-79
2023/05/30 05:48:08;;;;;;;;;;;18.90;99.20;;;;;;4855111;29;19928;-78
2023/05/30 05:50:35;;;;;;;;;;;19.10;97.90;;;;;;4871190;29;20010;-76
2023/05/30 05:53:02;;;;;;;;;;;19.10;98.20;;;;;;4854327;29;22608;-77
2023/05/30 05:55:30;;;;;;;;;;;19.30;97.50;;;;;;4864761;29;19971;-78
2023/05/30 05:57:57;;;;;;;;;;;19.20;96.80;;;;;;4872644;29;19956;-77
2023/05/30 06:00:24;;;;;;;;;;;19.30;97.00;;;;;;4865651;29;20419;-76
2023/05/30 06:02:51;;;;;;;;;;;19.50;95.70;;;;;;4869380;29;19951;-76
2023/05/30 06:05:18;;;;;;;;;;;19.90;95.40;;;;;;4865706;29;20450;-78
2023/05/30 06:07:45;;;;;;;;;;;20.10;94.00;;;;;;4852597;29;20364;-78
2023/05/30 06:10:12;;;;;;;;;;;20.40;93.00;;;;;;4868486;29;19936;-77
2023/05/30 06:12:40;;;;;;;;;;;20.50;92.90;;;;;;4850481;29;19935;-76
2023/05/30 06:15:07;;;;;;;;;;;20.40;93.00;;;;;;4877955;29;19928;-76
2023/05/30 06:17:34;;;;;;;;;;;20.40;92.90;;;;;;4874590;29;19939;-77
2023/05/30 06:20:02;;;;;;;;;;;20.20;92.90;;;;;;4864674;29;19936;-78
2023/05/30 06:22:30;;;;;;;;;;;20.10;93.10;;;;;;4866300;29;19943;-78
2023/05/30 06:24:57;;;;;;;;;;;20.30;93.20;;;;;;4844068;29;19968;-77
2023/05/30 06:27:24;;;;;;;;;;;20.20;93.30;;;;;;4865841;29;22584;-78
2023/05/30 06:29:55;;;;;;;;;;;20.10;93.00;;;;;;4870290;29;20038;-78
2023/05/30 06:32:22;;;;;;;;;;;20.10;92.70;;;;;;4869747;29;20019;-77
2023/05/30 06:34:49;;;;;;;;;;;20.20;93.10;;;;;;4847784;29;20613;-76
2023/05/30 06:37:16;;;;;;;;;;;20.20;92.70;;;;;;4860403;29;19955;-77
2023/05/30 06:39:43;;;;;;;;;;;20.40;92.30;;;;;;4858219;29;19962;-77
2023/05/30 06:42:10;;;;;;;;;;;20.90;91.20;;;;;;4863566;29;20400;-78
2023/05/30 06:44:43;;;;;;;;;;;21.40;91.00;;;;;;4880159;29;22621;-78
2023/05/30 06:47:10;;;;;;;;;;;21.80;90.40;;;;;;4872328;29;20546;-77
2023/05/30 06:49:37;;;;;;;;;;;21.80;88.60;;;;;;4853973;29;19928;-79
2023/05/30 06:52:05;;;;;;;;;;;21.90;89.90;;;;;;4847183;29;20023;-78
2023/05/30 06:54:32;;;;;;;;;;;21.90;90.30;;;;;;4867251;29;19928;-76
2023/05/30 06:57:05;;;;;;;;;;;21.90;89.80;;;;;;4869186;29;19931;-79
2023/05/30 06:59:34;;;;;;;;;;;21.60;88.80;;;;;;4864840;29;19954;-75
2023/05/30 07:02:03;;;;;;;;;;;21.70;87.40;;;;;;4864295;29;22363;-78
2023/05/30 07:04:30;;;;;;;;;;;21.50;87.50;;;;;;4876240;29;19968;-76
2023/05/30 07:06:57;;;;;;;;;;;21.30;87.20;;;;;;4867244;29;19979;-76
2023/05/30 07:09:26;;;;;;;;;;;21.30;86.70;;;;;;4850054;29;20027;-75
2023/05/30 07:11:53;;;;;;;;;;;21.30;86.40;;;;;;4868604;29;19942;-78
2023/05/30 07:14:20;;;;;;;;;;;21.40;87.00;;;;;;4857924;29;19938;-78
2023/05/30 07:16:47;;;;;;;;;;;21.40;85.90;;;;;;4853470;29;19942;-78
2023/05/30 07:19:14;;;;;;;;;;;21.40;84.80;;;;;;4865050;29;20778;-78
2023/05/30 07:21:41;;;;;;;;;;;21.50;84.60;;;;;;4862438;29;20443;-76
2023/05/30 07:24:08;;;;;;;;;;;21.80;82.90;;;;;;4849044;29;19936;-77
2023/05/30 07:26:35;;;;;;;;;;;22.40;81.30;;;;;;4878857;29;19932;-75
2023/05/30 07:29:02;;;;;;;;;;;22.60;79.10;;;;;;4865939;29;20030;-76
2023/05/30 07:31:30;;;;;;;;;;;22.60;79.70;;;;;;4859669;29;19939;-78
2023/05/30 07:33:57;;;;;;;;;;;22.80;78.20;;;;;;4853394;29;19935;-76
2023/05/30 07:36:24;;;;;;;;;;;22.80;79.10;;;;;;4869776;29;19943;-78
2023/05/30 07:38:51;;;;;;;;;;;22.90;78.60;;;;;;4864595;29;19979;-78
2023/05/30 07:41:18;;;;;;;;;;;22.70;79.20;;;;;;4854969;29;20344;-77
2023/05/30 07:43:45;;;;;;;;;;;22.40;79.50;;;;;;4854508;29;22653;-78
2023/05/30 07:46:13;;;;;;;;;;;22.30;80.90;;;;;;4849687;29;19938;-78
2023/05/30 07:48:43;;;;;;;;;;;22.20;78.90;;;;;;4883222;29;19943;-78
2023/05/30 07:51:12;;;;;;;;;;;22.00;79.60;;;;;;4864925;29;19942;-78
2023/05/30 07:53:39;;;;;;;;;;;21.90;80.90;;;;;;4850055;29;19970;-77
2023/05/30 07:56:06;;;;;;;;;;;21.80;79.40;;;;;;4875796;29;19936;-77
2023/05/30 07:58:33;;;;;;;;;;;21.80;81.20;;;;;;4867653;29;19935;-79
2023/05/30 08:01:02;;;;;;;;;;;21.60;79.80;;;;;;4870323;29;19932;-76
2023/05/30 08:03:29;;;;;;;;;;;21.60;81.60;;;;;;4860294;29;20300;-79
2023/05/30 08:05:56;;;;;;;;;;;21.60;81.00;;;;;;4849669;29;19928;-79
2023/05/30 08:08:25;;;;;;;;;;;21.60;82.10;;;;;;4856869;29;20337;-79
2023/05/30 08:10:53;;;;;;;;;;;21.60;83.10;;;;;;4864140;29;20375;-79
2023/05/30 08:13:24;;;;;;;;;;;21.50;83.00;;;;;;4860059;29;22932;-79
2023/05/30 08:15:51;;;;;;;;;;;21.50;82.80;;;;;;4875644;29;19931;-79
2023/05/30 08:18:18;;;;;;;;;;;21.40;82.30;;;;;;4860934;29;19943;-79
2023/05/30 08:20:45;;;;;;;;;;;21.40;84.10;;;;;;4856625;29;19991;-79
2023/05/30 08:23:13;;;;;;;;;;;21.40;85.20;;;;;;4867787;29;19943;-79
2023/05/30 08:25:45;;;;;;;;;;;21.40;85.40;;;;;;4880893;29;19967;-79
2023/05/30 08:28:12;;;;;;;;;;;21.30;84.40;;;;;;4865634;29;19949;-78
2023/05/30 08:30:43;;;;;;;;;;;21.40;85.10;;;;;;4858753;29;20531;-79
2023/05/30 08:33:12;;;;;;;;;;;21.50;85.40;;;;;;4844808;29;20003;-78
2023/05/30 08:35:39;;;;;;;;;;;21.60;85.20;;;;;;4863802;29;22698;-78
2023/05/30 08:38:06;;;;;;;;;;;21.60;85.60;;;;;;4869311;29;19939;-77
2023/05/30 08:40:33;;;;;;;;;;;21.60;86.30;;;;;;4878067;29;19942;-78
2023/05/30 08:43:01;;;;;;;;;;;21.50;86.20;;;;;;4865285;29;19936;-79
2023/05/30 08:45:28;;;;;;;;;;;21.60;86.30;;;;;;4864919;29;19928;-77
2023/05/30 08:47:59;;;;;;;;;;;21.50;86.50;;;;;;4853239;29;20475;-79
2023/05/30 08:50:27;;;;;;;;;;;21.50;86.80;;;;;;4868864;29;20653;-77
2023/05/30 08:52:56;;;;;;;;;;;21.50;87.40;;;;;;4850562;29;19942;-79
2023/05/30 08:55:26;;;;;;;;;;;21.50;87.00;;;;;;4851810;29;19931;-79
2023/05/30 08:57:56;;;;;;;;;;;21.50;87.20;;;;;;4874862;29;19936;-79
2023/05/30 09:00:24;;;;;;;;;;;21.50;87.40;;;;;;4842156;29;20817;-79
2023/05/30 09:02:55;;;;;;;;;;;21.50;87.20;;;;;;4844261;29;19979;-79
2023/05/30 09:05:23;;;;;;;;;;;21.50;88.10;;;;;;4841028;29;19935;-78
2023/05/30 09:07:52;;;;;;;;;;;21.40;87.70;;;;;;4875677;29;19927;-78
2023/05/30 09:10:19;;;;;;;;;;;21.40;88.10;;;;;;4858764;29;20101;-79
2023/05/30 09:12:47;;;;;;;;;;;21.30;89.40;;;;;;4878425;29;19934;-80
2023/05/30 09:15:14;;;;;;;;;;;21.20;93.60;;;;;;4848606;29;19935;-79
2023/05/30 09:17:41;;;;;;;;;;;21.20;96.20;;;;;;4863960;29;19934;-78
2023/05/30 09:20:11;;;;;;;;;;;21.10;96.40;;;;;;4863840;29;19980;-79
2023/05/30 09:22:38;;;;;;;;;;;21.20;96.00;;;;;;4853513;29;19995;-78
2023/05/30 09:25:05;;;;;;;;;;;21.10;95.60;;;;;;4868042;29;19932;-79
2023/05/30 09:27:35;;;;;;;;;;;21.00;95.10;;;;;;4866167;29;19935;-79
2023/05/30 09:30:07;;;;;;;;;;;21.10;93.80;;;;;;4875500;29;19936;-79
2023/05/30 09:32:36;;;;;;;;;;;21.10;92.60;;;;;;4856685;29;19932;-77
2023/05/30 09:35:05;;;;;;;;;;;21.10;93.00;;;;;;4856478;29;19935;-79
2023/05/30 09:37:41;;;;;;;;;;;21.10;92.10;;;;;;4866308;29;19938;-78
2023/05/30 09:40:13;;;;;;;;;;;21.10;91.70;;;;;;4867617;29;19928;-79
2023/05/30 09:42:47;;;;;;;;;;;21.20;92.20;;;;;;4867648;29;19952;-79
2023/05/30 09:45:15;;;;;;;;;;;21.10;90.40;;;;;;4847611;29;19935;-78
2023/05/30 09:47:44;;;;;;;;;;;21.10;90.10;;;;;;4874898;29;19935;-77
2023/05/30 09:50:16;;;;;;;;;;;21.10;89.30;;;;;;4836961;29;19931;-78
2023/05/30 09:52:43;;;;;;;;;;;21.20;88.90;;;;;;4868291;29;19954;-79
2023/05/30 09:55:14;;;;;;;;;;;21.30;89.00;;;;;;4866384;29;19966;-78
2023/05/30 09:57:46;;;;;;;;;;;21.30;89.10;;;;;;4877588;29;19928;-79
2023/05/30 10:00:15;;;;;;;;;;;21.30;89.00;;;;;;4877791;29;19928;-79
2023/05/30 10:02:43;;;;;;;;;;;21.30;89.90;;;;;;4855336;29;19927;-79
2023/05/30 10:05:31;;;;;;;;;;;21.40;90.10;;;;;;4866317;29;20759;-79
2023/05/30 10:07:58;;;;;;;;;;;21.60;90.10;;;;;;4828145;29;19932;-78
2023/05/30 10:10:25;;;;;;;;;;;21.90;90.60;;;;;;4845233;29;19928;-79
2023/05/30 10:12:53;;;;;;;;;;;21.60;90.30;;;;;;4834598;29;19928;-79
2023/05/30 10:15:28;;;;;;;;;;;21.90;90.60;;;;;;4831883;29;19933;-79
2023/05/30 10:18:07;;;;;;;;;;;21.70;89.50;;;;;;4828203;29;19988;-79
2023/05/30 10:20:46;;;;;;;;;;;21.70;90.40;;;;;;4825365;29;20077;-79
2023/05/30 10:23:15;;;;;;;;;;;21.80;90.50;;;;;;4816277;29;19936;-80
2023/05/30 10:25:46;;;;;;;;;;;21.70;90.70;;;;;;4839557;29;20024;-80
2023/05/30 10:28:18;;;;;;;;;;;21.80;90.80;;;;;;4840983;29;20015;-79
2023/05/30 10:30:47;;;;;;;;;;;21.80;90.80;;;;;;4830391;29;20397;-79
2023/05/30 10:33:14;;;;;;;;;;;21.80;91.50;;;;;;4814275;29;19939;-79
2023/05/30 10:35:42;;;;;;;;;;;21.80;92.20;;;;;;4825133;29;19943;-77
2023/05/30 10:38:11;;;;;;;;;;;21.90;91.70;;;;;;4854569;29;19932;-80
2023/05/30 10:40:59;;;;;;;;;;;21.80;92.20;;;;;;4852173;29;19927;-79
2023/05/30 10:43:32;;;;;;;;;;;21.90;92.60;;;;;;4877122;29;20048;-79
2023/05/30 10:46:29;;;;;;;;;;;21.80;92.20;;;;;;4874052;29;19988;-79
2023/05/30 10:49:01;;;;;;;;;;;21.90;92.30;;;;;;4790807;29;19937;-80
2023/05/30 10:51:28;;;;;;;;;;;21.70;93.70;;;;;;4815133;29;20348;-80
2023/05/30 10:53:57;;;;;;;;;;;21.80;93.80;;;;;;4857443;29;20899;-79
2023/05/30 10:56:31;;;;;;;;;;;21.80;93.70;;;;;;4856957;29;20011;-80
2023/05/30 10:59:00;;;;;;;;;;;21.80;92.70;;;;;;4863803;29;19932;-80
2023/05/30 11:01:28;;;;;;;;;;;21.70;92.10;;;;;;4872620;29;20022;-79
2023/05/30 11:04:01;;;;;;;;;;;21.70;92.30;;;;;;4869451;29;19936;-79
2023/05/30 11:06:31;;;;;;;;;;;21.70;92.40;;;;;;4874162;29;20027;-79
2023/05/30 11:09:09;;;;;;;;;;;21.70;92.50;;;;;;4852389;29;19992;-79
2023/05/30 11:11:37;;;;;;;;;;;21.70;92.70;;;;;;4872667;29;19927;-79
2023/05/30 11:14:14;;;;;;;;;;;21.70;92.30;;;;;;4882766;29;20375;-79
2023/05/30 11:16:48;;;;;;;;;;;21.70;93.00;;;;;;4872944;29;22528;-80
2023/05/30 11:19:16;;;;;;;;;;;21.70;93.20;;;;;;4873209;29;20328;-79
2023/05/30 11:21:59;;;;;;;;;;;21.70;92.20;;;;;;4864353;29;19932;-80
2023/05/30 11:24:30;;;;;;;;;;;21.80;92.70;;;;;;4871247;29;19943;-79
2023/05/30 11:26:58;;;;;;;;;;;21.80;93.50;;;;;;4859645;29;19935;-79
2023/05/30 11:29:32;;;;;;;;;;;21.90;94.00;;;;;;4859174;29;19938;-79
2023/05/30 11:32:00;;;;;;;;;;;21.80;93.10;;;;;;4874287;29;19939;-79
2023/05/30 11:34:28;;;;;;;;;;;21.80;92.50;;;;;;4869138;29;19936;-79
2023/05/30 11:36:55;;;;;;;;;;;21.90;92.10;;;;;;4852474;29;19936;-79
2023/05/30 11:39:22;;;;;;;;;;;21.90;92.90;;;;;;4853158;29;19984;-79
2023/05/30 11:41:50;;;;;;;;;;;21.90;93.60;;;;;;4849128;29;19943;-79
2023/05/30 11:44:20;;;;;;;;;;;22.00;92.90;;;;;;4882659;29;19934;-79
2023/05/30 11:47:10;;;;;;;;;;;22.10;92.90;;;;;;4858201;29;20348;-79
2023/05/30 11:49:57;;;;;;;;;;;21.70;91.90;;;;;;4868689;29;20052;-79
2023/05/30 11:52:24;;;;;;;;;;;22.00;91.70;;;;;;4854902;29;19935;-79
2023/05/30 11:54:57;;;;;;;;;;;22.20;91.30;;;;;;4872988;29;19951;-79
2023/05/30 11:57:24;;;;;;;;;;;22.10;90.20;;;;;;4852381;29;19942;-79
2023/05/30 11:59:51;;;;;;;;;;;22.30;91.00;;;;;;4862883;29;19959;-80
2023/05/30 12:02:18;;;;;;;;;;;22.30;89.60;;;;;;4871455;29;19991;-80
2023/05/30 12:04:47;;;;;;;;;;;22.10;87.30;;;;;;4868367;29;19928;-80
2023/05/30 12:07:14;;;;;;;;;;;22.20;87.40;;;;;;4864254;29;19942;-80
2023/05/30 12:09:41;;;;;;;;;;;22.10;87.40;;;;;;4868178;29;20877;-80
2023/05/30 12:12:09;;;;;;;;;;;22.30;89.00;;;;;;4877559;29;19992;-79
2023/05/30 12:14:40;;;;;;;;;;;22.50;87.90;;;;;;4842567;29;19986;-79
2023/05/30 12:17:10;;;;;;;;;;;22.40;87.70;;;;;;4823944;29;19992;-80
2023/05/30 12:19:39;;;;;;;;;;;22.50;87.40;;;;;;4816975;29;20945;-80
2023/05/30 12:22:17;;;;;;;;;;;22.60;88.30;;;;;;4812667;29;20027;-80
2023/05/30 12:24:45;;;;;;;;;;;22.60;87.20;;;;;;4807598;29;20702;-80
2023/05/30 12:27:25;;;;;;;;;;;22.70;86.40;;;;;;4800947;29;19933;-80
2023/05/30 12:30:13;;;;;;;;;;;22.80;86.80;;;;;;4835526;29;19936;-80
2023/05/30 12:32:40;;;;;;;;;;;22.80;85.40;;;;;;4849685;29;19928;-80
2023/05/30 12:35:08;;;;;;;;;;;22.70;83.50;;;;;;4824542;29;19929;-79
2023/05/30 12:37:35;;;;;;;;;;;22.80;84.30;;;;;;4834826;29;20782;-80
2023/05/30 12:40:05;;;;;;;;;;;22.80;81.40;;;;;;4861551;29;19936;-80
2023/05/30 12:42:47;;;;;;;;;;;23.00;82.80;;;;;;4844067;29;19984;-80
2023/05/30 12:45:16;;;;;;;;;;;23.10;82.40;;;;;;4832287;29;20077;-80
2023/05/30 12:47:43;;;;;;;;;;;23.20;82.10;;;;;;4856133;29;19936;-80
2023/05/30 12:50:11;;;;;;;;;;;23.20;80.40;;;;;;4856164;29;19992;-80
2023/05/30 12:52:38;;;;;;;;;;;23.30;78.80;;;;;;4850650;29;19932;-79
2023/05/30 12:55:06;;;;;;;;;;;23.30;79.70;;;;;;4927232;23;19984;-78
2023/05/30 13:06:37;;;;;;;;;;;23.50;79.80;;;;;;4984314;24;19936;-79
2023/05/30 13:09:06;;;;;;;;;;;23.50;78.10;;;;;;4865652;29;19936;-79
2023/05/30 13:11:33;;;;;;;;;;;23.50;78.20;;;;;;4893260;24;20709;-79
2023/05/30 13:14:01;;;;;;;;;;;23.50;77.80;;;;;;4865328;29;19961;-78
2023/05/30 13:16:28;;;;;;;;;;;23.30;77.80;;;;;;4870163;29;19927;-79
2023/05/30 13:18:56;;;;;;;;;;;23.30;78.40;;;;;;4871011;29;19936;-79
2023/05/30 13:21:26;;;;;;;;;;;23.40;79.40;;;;;;4902469;24;19972;-78
2023/05/30 13:23:53;;;;;;;;;;;23.30;75.50;;;;;;4832272;29;19928;-79
2023/05/30 13:26:21;;;;;;;;;;;23.30;75.90;;;;;;4854555;29;19955;-78
2023/05/30 13:31:59;;;;;;;;;;;23.50;77.50;;;;;;4871019;29;19936;-80
2023/05/30 13:34:29;;;;;;;;;;;23.50;75.30;;;;;;4869216;29;19932;-80
2023/05/30 13:37:06;;;;;;;;;;;23.50;75.90;;;;;;4824265;29;19936;-80
2023/05/30 13:39:34;;;;;;;;;;;23.50;74.20;;;;;;4849378;29;22579;-80
2023/05/30 13:42:02;;;;;;;;;;;23.40;73.50;;;;;;4864123;29;20027;-80
2023/05/30 13:44:30;;;;;;;;;;;23.40;75.60;;;;;;4859982;29;19939;-79
2023/05/30 13:46:57;;;;;;;;;;;23.50;77.30;;;;;;4852237;29;19936;-79
2023/05/30 13:49:32;;;;;;;;;;;23.60;76.30;;;;;;4852082;29;19965;-79
2023/05/30 13:52:00;;;;;;;;;;;23.60;75.40;;;;;;4862922;29;20300;-79
2023/05/30 13:54:27;;;;;;;;;;;23.60;75.90;;;;;;4839573;29;19999;-80
2023/05/30 13:56:54;;;;;;;;;;;23.70;74.60;;;;;;4864882;29;19962;-80
2023/05/30 13:59:23;;;;;;;;;;;23.60;75.00;;;;;;4853872;29;19928;-80
2023/05/30 14:01:54;;;;;;;;;;;23.80;74.00;;;;;;4842621;29;19936;-80
2023/05/30 14:04:54;;;;;;;;;;;23.80;74.20;;;;;;4848509;29;19943;-80
2023/05/30 14:07:48;;;;;;;;;;;23.70;72.90;;;;;;4847127;29;19951;-80
2023/05/30 14:10:19;;;;;;;;;;;23.70;74.10;;;;;;4814941;29;19994;-80
2023/05/30 14:12:47;;;;;;;;;;;23.70;74.10;;;;;;4810915;29;20363;-80
2023/05/30 14:15:15;;;;;;;;;;;23.70;74.00;;;;;;4832729;29;20043;-80
2023/05/30 14:17:43;;;;;;;;;;;23.70;73.40;;;;;;4845300;29;20031;-80
2023/05/30 14:20:14;;;;;;;;;;;23.70;74.00;;;;;;4835400;29;22735;-80
2023/05/30 14:22:41;;;;;;;;;;;23.70;74.10;;;;;;4826739;29;19928;-79
2023/05/30 14:25:08;;;;;;;;;;;23.70;72.80;;;;;;4835470;29;20567;-79
2023/05/30 14:27:36;;;;;;;;;;;23.80;73.70;;;;;;4844396;29;19928;-80
2023/05/30 14:30:03;;;;;;;;;;;23.80;73.90;;;;;;4844752;29;20416;-80
2023/05/30 14:32:41;;;;;;;;;;;23.80;73.50;;;;;;4822801;29;20020;-79
2023/05/30 14:35:14;;;;;;;;;;;23.80;73.40;;;;;;4838744;29;19945;-80
2023/05/30 14:37:46;;;;;;;;;;;23.70;73.20;;;;;;4813381;29;19943;-80
2023/05/30 14:43:22;;;;;;;;;;;23.80;73.30;;;;;;4860312;29;19932;-79
2023/05/30 14:46:50;;;;;;;;;;;23.80;72.50;;;;;;4909681;24;19924;31